Time;durP1;ratioP1;P1;durP2;ratioP2;P2;SDS_P1;SDS_P2;PMS_P1;PMS_P2;Temp;Humidity;BMP_temperature;BMP_pressure;BME280_temperature;BME280_humidity;BME280_pressure;Samples;Min_cycle;Max_cycle;Signal;HPM_P1;HPM_P2
2023/12/02 00:03:07;;;;;;;14.68;7.13;;;5.00;95.50;;;;;;10474458;28;20115;-70
2023/12/02 00:08:08;;;;;;;13.88;6.95;;;5.00;95.50;;;;;;10478665;28;20051;-70
2023/12/02 00:13:08;;;;;;;14.77;6.13;;;5.00;95.50;;;;;;10467766;28;20068;-70
2023/12/02 00:18:09;;;;;;;15.15;6.78;;;5.00;95.50;;;;;;10464342;28;20040;-70
2023/12/02 00:23:09;;;;;;;14.57;7.18;;;5.00;95.60;;;;;;10470964;28;20028;-70
2023/12/02 00:28:10;;;;;;;14.88;7.38;;;5.00;95.50;;;;;;10485149;28;20035;-70
2023/12/02 00:33:11;;;;;;;14.77;6.40;;;5.00;95.50;;;;;;10472708;28;20066;-70
2023/12/02 00:38:12;;;;;;;14.80;7.13;;;5.00;95.50;;;;;;10474828;28;20017;-70
2023/12/02 00:43:12;;;;;;;16.35;7.28;;;5.00;95.50;;;;;;10479769;28;20497;-70
2023/12/02 00:48:14;;;;;;;14.00;6.63;;;5.00;95.50;;;;;;10473366;28;20041;-70
2023/12/02 00:53:14;;;;;;;12.60;6.60;;;5.00;95.50;;;;;;10471154;28;20108;-70
2023/12/02 00:58:15;;;;;;;14.02;6.90;;;5.00;95.50;;;;;;10483886;28;20020;-70
2023/12/02 01:03:15;;;;;;;13.55;6.97;;;5.00;95.50;;;;;;10483041;28;20029;-70
2023/12/02 01:08:16;;;;;;;12.98;6.10;;;5.00;95.50;;;;;;10482144;28;20047;-70
2023/12/02 01:13:17;;;;;;;16.00;7.32;;;5.00;95.50;;;;;;10467389;28;20859;-70
2023/12/02 01:18:18;;;;;;;14.48;6.78;;;5.00;95.50;;;;;;10482649;28;20077;-70
2023/12/02 01:23:18;;;;;;;13.90;6.93;;;5.00;95.50;;;;;;10476633;28;20041;-70
2023/12/02 01:28:19;;;;;;;14.60;6.80;;;5.00;95.50;;;;;;10484014;28;20043;-70
2023/12/02 01:33:19;;;;;;;12.68;6.43;;;5.00;95.50;;;;;;10476413;28;20033;-70
2023/12/02 01:38:20;;;;;;;14.52;6.53;;;5.00;95.50;;;;;;10481369;28;20435;-70
2023/12/02 01:43:27;;;;;;;14.57;6.97;;;5.00;95.50;;;;;;10493671;28;20027;-70
2023/12/02 01:48:32;;;;;;;14.85;7.38;;;5.00;95.50;;;;;;10478798;28;20086;-70
2023/12/02 01:53:33;;;;;;;13.85;6.57;;;5.00;95.50;;;;;;10487845;28;20516;-70
2023/12/02 01:58:35;;;;;;;12.95;6.68;;;5.00;95.50;;;;;;10486879;28;20013;-70
2023/12/02 02:03:35;;;;;;;15.63;7.18;;;5.10;95.50;;;;;;10484983;28;20384;-70
2023/12/02 02:08:36;;;;;;;14.63;7.25;;;5.00;95.50;;;;;;10475978;28;20047;-70
2023/12/02 02:13:37;;;;;;;13.20;6.57;;;5.00;95.50;;;;;;10494027;28;20049;-70
2023/12/02 02:18:37;;;;;;;13.77;6.63;;;5.00;95.50;;;;;;10479002;28;20024;-70
2023/12/02 02:23:38;;;;;;;16.50;7.72;;;5.00;95.50;;;;;;10478880;28;20304;-70
2023/12/02 02:28:38;;;;;;;14.82;6.82;;;5.00;95.50;;;;;;10485619;28;20224;-70
2023/12/02 02:33:39;;;;;;;14.57;6.63;;;5.00;95.50;;;;;;10487553;28;20028;-70
2023/12/02 02:38:40;;;;;;;15.55;7.53;;;4.90;95.50;;;;;;10483934;28;20037;-70
2023/12/02 02:43:40;;;;;;;15.82;7.15;;;5.00;95.50;;;;;;10476297;28;20032;-70
2023/12/02 02:48:41;;;;;;;13.05;7.03;;;5.00;95.80;;;;;;10480273;28;20694;-69
2023/12/02 02:53:42;;;;;;;13.20;6.35;;;5.00;95.50;;;;;;10485936;28;20107;-70
2023/12/02 02:58:43;;;;;;;15.20;7.32;;;5.00;95.50;;;;;;10472046;28;20317;-70
2023/12/02 03:03:43;;;;;;;15.45;7.75;;;5.00;95.50;;;;;;10486251;28;20178;-70
2023/12/02 03:08:44;;;;;;;14.70;7.03;;;5.00;95.50;;;;;;10474663;28;20029;-70
2023/12/02 03:13:44;;;;;;;14.82;6.85;;;5.00;95.50;;;;;;10474807;28;20021;-70
2023/12/02 03:18:45;;;;;;;14.25;7.57;;;5.00;95.50;;;;;;10469534;28;20024;-70
2023/12/02 03:23:49;;;;;;;12.90;7.00;;;4.90;95.50;;;;;;10482154;28;20377;-70
2023/12/02 03:28:50;;;;;;;14.35;6.85;;;5.00;95.50;;;;;;10468036;28;20380;-70
2023/12/02 03:33:50;;;;;;;14.85;7.30;;;4.90;95.50;;;;;;10469270;28;20036;-70
2023/12/02 03:38:51;;;;;;;15.20;7.07;;;4.90;95.50;;;;;;10471699;28;20044;-70
2023/12/02 03:43:51;;;;;;;16.13;8.23;;;4.90;95.50;;;;;;10482231;28;20047;-70
2023/12/02 03:48:52;;;;;;;15.50;7.28;;;4.90;95.50;;;;;;10481451;28;20660;-70
2023/12/02 03:53:53;;;;;;;15.10;7.70;;;4.90;95.50;;;;;;10478677;28;20032;-70
2023/12/02 03:58:53;;;;;;;14.18;6.93;;;4.40;95.40;;;;;;10476017;28;20104;-70
2023/12/02 04:03:54;;;;;;;14.80;6.93;;;4.90;95.50;;;;;;10482506;28;20400;-70
2023/12/02 04:08:54;;;;;;;14.45;7.05;;;4.90;95.50;;;;;;10483338;28;20443;-70
2023/12/02 04:13:55;;;;;;;14.15;6.90;;;4.90;95.50;;;;;;10475638;28;20036;-70
2023/12/02 04:18:55;;;;;;;16.95;7.47;;;4.90;95.50;;;;;;10476103;28;20025;-70
2023/12/02 04:23:56;;;;;;;15.27;7.22;;;4.90;95.50;;;;;;10466133;28;20483;-70
2023/12/02 04:28:57;;;;;;;14.73;7.85;;;4.90;95.50;;;;;;10470699;28;20020;-70
2023/12/02 04:33:57;;;;;;;17.23;7.50;;;4.90;95.50;;;;;;10482297;28;20013;-70
2023/12/02 04:38:58;;;;;;;14.18;6.95;;;4.90;95.50;;;;;;10477253;28;20036;-70
2023/12/02 04:43:58;;;;;;;15.60;7.72;;;4.90;95.50;;;;;;10472999;28;20024;-70
2023/12/02 04:48:59;;;;;;;16.27;7.15;;;4.90;95.50;;;;;;10473074;28;20495;-70
2023/12/02 04:53:59;;;;;;;14.73;7.72;;;4.90;95.50;;;;;;10475933;28;20028;-70
2023/12/02 04:59:00;;;;;;;15.90;6.90;;;4.80;95.50;;;;;;10477685;28;20512;-70
2023/12/02 05:04:01;;;;;;;13.35;6.40;;;4.80;95.50;;;;;;10474515;28;20029;-70
2023/12/02 05:09:02;;;;;;;16.33;6.85;;;4.80;95.40;;;;;;10478045;28;20111;-70
2023/12/02 05:14:03;;;;;;;14.70;6.75;;;4.80;95.50;;;;;;10473046;28;20025;-70
2023/12/02 05:19:03;;;;;;;15.57;7.07;;;4.80;95.50;;;;;;10482371;28;20082;-70
2023/12/02 05:24:04;;;;;;;16.77;7.28;;;4.80;95.50;;;;;;10475005;28;20028;-70
2023/12/02 05:29:05;;;;;;;14.73;7.28;;;4.90;95.50;;;;;;10473174;28;20031;-70
2023/12/02 05:34:06;;;;;;;16.10;7.20;;;4.80;95.40;;;;;;10491262;28;20017;-70
2023/12/02 05:39:06;;;;;;;13.93;7.28;;;4.80;95.40;;;;;;10488653;28;20039;-70
2023/12/02 05:44:07;;;;;;;15.15;6.82;;;4.80;95.40;;;;;;10478187;28;20075;-70
2023/12/02 05:49:07;;;;;;;13.30;6.97;;;4.80;95.40;;;;;;10478076;28;20111;-70
2023/12/02 05:54:09;;;;;;;16.95;7.38;;;4.80;95.50;;;;;;10493568;28;20028;-70
2023/12/02 05:59:09;;;;;;;18.05;7.50;;;4.80;95.40;;;;;;10490843;28;20024;-70
2023/12/02 06:04:10;;;;;;;14.25;7.47;;;4.80;95.50;;;;;;10485474;28;20024;-69
2023/12/02 06:09:11;;;;;;;17.83;7.07;;;4.80;95.50;;;;;;10489262;28;20199;-70
2023/12/02 06:14:11;;;;;;;15.05;7.38;;;4.80;95.50;;;;;;10480443;28;20020;-70
2023/12/02 06:19:12;;;;;;;16.80;8.07;;;4.80;95.50;;;;;;10470949;28;20040;-70
2023/12/02 06:24:12;;;;;;;15.73;6.63;;;4.80;95.50;;;;;;10479456;28;20093;-70
2023/12/02 06:29:13;;;;;;;16.83;7.95;;;4.80;95.50;;;;;;10485804;28;20028;-70
2023/12/02 06:34:14;;;;;;;17.67;7.75;;;4.80;95.40;;;;;;10486534;28;20027;-70
2023/12/02 06:39:15;;;;;;;17.08;7.53;;;4.80;95.40;;;;;;10485649;28;20016;-70
2023/12/02 06:44:17;;;;;;;19.50;7.88;;;4.70;95.40;;;;;;10495620;28;20483;-70
2023/12/02 06:49:18;;;;;;;18.38;7.57;;;4.70;95.40;;;;;;10496529;28;20020;-70
2023/12/02 06:54:18;;;;;;;15.73;7.60;;;4.70;95.40;;;;;;10489911;28;20442;-70
2023/12/02 06:59:19;;;;;;;18.52;7.75;;;4.70;95.40;;;;;;10494909;28;20040;-70
2023/12/02 07:04:20;;;;;;;15.38;7.63;;;4.70;95.40;;;;;;10476333;28;20036;-70
2023/12/02 07:09:20;;;;;;;15.82;7.65;;;4.70;95.40;;;;;;10487721;28;20024;-70
2023/12/02 07:14:21;;;;;;;17.08;8.07;;;4.70;95.40;;;;;;10489634;28;20028;-70
2023/12/02 07:19:21;;;;;;;17.23;7.68;;;4.70;95.40;;;;;;10486164;28;20063;-70
2023/12/02 07:24:22;;;;;;;18.30;8.13;;;4.70;95.40;;;;;;10488687;28;20051;-70
2023/12/02 07:29:22;;;;;;;17.38;7.82;;;4.70;95.40;;;;;;10480188;28;20411;-70
2023/12/02 07:34:23;;;;;;;16.08;7.38;;;4.70;95.40;;;;;;10478597;28;20446;-70
2023/12/02 07:39:23;;;;;;;17.85;7.60;;;4.70;95.40;;;;;;10486124;28;20504;-70
2023/12/02 07:44:25;;;;;;;17.42;8.18;;;4.70;95.40;;;;;;10489388;28;20036;-70
2023/12/02 07:49:25;;;;;;;19.23;8.32;;;4.70;95.40;;;;;;10483905;28;20027;-70
2023/12/02 07:54:26;;;;;;;15.63;7.53;;;4.70;95.40;;;;;;10488249;28;20031;-70
2023/12/02 07:59:26;;;;;;;16.77;7.13;;;4.70;95.40;;;;;;10483768;28;20104;-69
2023/12/02 08:04:27;;;;;;;17.70;7.55;;;4.70;95.40;;;;;;10482085;28;20033;-70
2023/12/02 08:09:27;;;;;;;17.90;7.22;;;4.70;95.40;;;;;;10488589;28;20097;-69
2023/12/02 08:14:28;;;;;;;15.32;7.15;;;4.70;95.30;;;;;;10482371;28;20021;-68
2023/12/02 08:19:29;;;;;;;19.15;8.35;;;4.70;95.30;;;;;;10478266;28;20111;-70
2023/12/02 08:24:32;;;;;;;14.90;7.47;;;4.70;95.30;;;;;;10477265;28;20116;-69
2023/12/02 08:29:33;;;;;;;18.33;7.80;;;4.70;95.30;;;;;;10488314;28;20040;-70
2023/12/02 08:34:33;;;;;;;17.67;7.57;;;4.70;95.30;;;;;;10477328;28;20020;-69
2023/12/02 08:39:35;;;;;;;16.27;8.32;;;4.70;95.30;;;;;;10477628;28;20032;-69
2023/12/02 08:44:37;;;;;;;19.23;8.25;;;4.70;95.30;;;;;;10492217;28;20054;-69
2023/12/02 08:49:38;;;;;;;19.10;8.65;;;4.70;95.30;;;;;;10484879;28;20119;-70
2023/12/02 08:54:39;;;;;;;21.05;8.05;;;4.70;95.30;;;;;;10478651;28;20029;-69
2023/12/02 08:59:39;;;;;;;17.70;8.45;;;4.70;95.30;;;;;;10480492;28;20466;-69
2023/12/02 09:04:40;;;;;;;17.98;7.70;;;4.70;95.30;;;;;;10483367;28;20108;-69
2023/12/02 09:09:42;;;;;;;19.40;8.60;;;4.70;95.30;;;;;;10483346;28;20040;-70
2023/12/02 09:14:42;;;;;;;19.70;8.52;;;4.70;95.30;;;;;;10474229;28;20029;-68
2023/12/02 09:19:53;;;;;;;16.60;8.02;;;4.70;95.30;;;;;;10479364;28;20025;-69
2023/12/02 09:24:54;;;;;;;17.92;8.20;;;4.70;95.20;;;;;;10493177;28;20031;-69
2023/12/02 09:29:54;;;;;;;21.25;8.90;;;4.70;95.20;;;;;;10490575;28;20504;-70
2023/12/02 09:34:58;;;;;;;20.80;8.85;;;4.70;95.20;;;;;;10494681;28;20101;-71
2023/12/02 09:40:21;;;;;;;21.48;8.52;;;4.70;95.20;;;;;;10491294;28;20029;-71
2023/12/02 09:45:33;;;;;;;17.45;7.35;;;4.80;95.40;;;;;;10483323;28;20066;-71
2023/12/02 09:50:52;;;;;;;20.58;8.65;;;4.80;95.30;;;;;;10483472;28;20119;-71
2023/12/02 09:56:03;;;;;;;18.80;8.68;;;5.40;95.40;;;;;;10492337;28;20077;-71
2023/12/02 10:01:13;;;;;;;16.27;8.43;;;4.80;95.30;;;;;;10489460;28;20035;-71
2023/12/02 10:06:17;;;;;;;19.27;7.82;;;4.80;95.30;;;;;;10486473;28;20127;-71
2023/12/02 10:11:40;;;;;;;17.35;8.25;;;4.80;95.30;;;;;;10484627;28;20029;-70
2023/12/02 10:16:43;;;;;;;20.80;8.45;;;4.90;95.20;;;;;;10475152;28;20596;-70
2023/12/02 10:21:49;;;;;;;20.15;8.68;;;4.90;95.30;;;;;;10490032;28;20012;-71
2023/12/02 10:27:00;;;;;;;20.95;8.77;;;4.90;95.30;;;;;;10486430;28;20457;-69
2023/12/02 10:32:07;;;;;;;19.52;7.93;;;4.90;95.30;;;;;;10479056;28;20522;-70
2023/12/02 10:37:09;;;;;;;22.20;8.85;;;4.90;95.30;;;;;;10483445;28;20024;-69
2023/12/02 10:42:25;;;;;;;22.08;8.98;;;4.90;95.20;;;;;;10485077;28;20377;-69
2023/12/02 10:47:27;;;;;;;21.13;9.00;;;5.00;95.20;;;;;;10489230;28;20028;-69
2023/12/02 10:52:30;;;;;;;27.17;10.70;;;4.90;95.20;;;;;;10486568;28;20032;-69
2023/12/02 10:57:31;;;;;;;18.00;8.00;;;4.90;95.20;;;;;;10503862;28;20373;-69
2023/12/02 11:02:42;;;;;;;23.70;9.93;;;5.00;95.20;;;;;;10490006;28;20016;-69
2023/12/02 11:07:59;;;;;;;24.20;9.55;;;5.00;95.20;;;;;;10483268;28;20493;-69
2023/12/02 11:13:12;;;;;;;22.33;9.20;;;5.00;95.20;;;;;;10488081;28;20040;-69
2023/12/02 11:18:30;;;;;;;21.70;9.68;;;5.00;95.20;;;;;;10480215;28;20031;-68
2023/12/02 11:23:46;;;;;;;22.97;9.77;;;5.00;95.20;;;;;;10497073;28;20251;-70
2023/12/02 11:29:27;;;;;;;22.27;9.18;;;5.00;95.20;;;;;;10485240;28;20511;-69
2023/12/02 11:34:28;;;;;;;20.95;9.63;;;5.10;95.10;;;;;;10471385;28;20455;-69
2023/12/02 11:39:33;;;;;;;23.73;8.85;;;5.10;95.20;;;;;;10483788;28;20032;-70
2023/12/02 11:44:46;;;;;;;19.60;8.63;;;5.10;95.20;;;;;;10478899;28;20036;-70
2023/12/02 11:49:46;;;;;;;23.95;9.88;;;5.10;95.20;;;;;;10485437;28;20020;-70
2023/12/02 11:55:15;;;;;;;25.00;11.02;;;5.10;95.20;;;;;;10488147;28;20502;-71
2023/12/02 12:00:50;;;;;;;22.25;9.48;;;5.10;95.20;;;;;;10483085;28;20028;-71
2023/12/02 12:06:09;;;;;;;25.50;9.23;;;5.20;96.20;;;;;;10474416;28;20150;-70
2023/12/02 12:11:14;;;;;;;;;;;5.20;95.60;;;;;;10474122;28;20034;-71
2023/12/02 12:16:15;;;;;;;20.90;9.30;;;5.20;95.90;;;;;;10488824;28;19916;-71
2023/12/02 12:21:16;;;;;;;27.92;11.13;;;5.20;95.60;;;;;;10483487;28;20035;-71
2023/12/02 12:26:17;;;;;;;24.42;10.45;;;5.20;95.60;;;;;;10481151;28;20032;-70
2023/12/02 12:31:17;;;;;;;23.02;10.10;;;5.30;95.70;;;;;;10488558;28;20146;-71
2023/12/02 12:36:27;;;;;;;23.15;10.25;;;5.20;95.60;;;;;;10485156;28;20399;-71
2023/12/02 12:41:27;;;;;;;24.95;9.50;;;5.20;95.60;;;;;;10493027;28;20020;-70
2023/12/02 12:46:28;;;;;;;25.42;9.77;;;5.30;95.70;;;;;;10481859;28;20058;-70
2023/12/02 12:51:29;;;;;;;27.00;10.77;;;5.30;95.90;;;;;;10475980;28;20025;-69
2023/12/02 12:56:38;;;;;;;24.40;9.60;;;5.30;95.80;;;;;;10484123;28;20090;-71
2023/12/02 13:01:53;;;;;;;24.30;10.57;;;5.40;95.80;;;;;;10502527;28;20473;-71
2023/12/02 13:07:12;;;;;;;24.67;9.63;;;5.40;95.80;;;;;;10498729;28;20043;-69
2023/12/02 13:12:13;;;;;;;;;;;5.40;96.10;;;;;;10492775;28;20396;-69
2023/12/02 13:17:14;;;;;;;28.58;9.57;;;5.40;96.10;;;;;;10506514;28;19907;-69
2023/12/02 13:22:16;;;;;;;28.02;10.20;;;5.40;96.00;;;;;;10494245;28;20039;-69
2023/12/02 13:28:02;;;;;;;25.73;9.52;;;5.40;96.00;;;;;;10493690;28;20025;-69
2023/12/02 13:33:18;;;;;;;24.35;10.13;;;5.40;96.10;;;;;;10479843;28;20524;-70
2023/12/02 13:38:28;;;;;;;25.35;9.65;;;5.40;96.10;;;;;;10491274;28;20020;-69
2023/12/02 13:43:41;;;;;;;22.70;9.30;;;5.40;96.00;;;;;;10490840;28;20033;-69
2023/12/02 13:49:03;;;;;;;25.23;9.45;;;5.40;96.10;;;;;;10488975;28;20032;-69
2023/12/02 13:54:09;;;;;;;25.52;10.40;;;5.40;96.10;;;;;;10488986;28;20032;-69
2023/12/02 13:59:48;;;;;;;21.27;9.30;;;5.40;96.40;;;;;;10485701;28;20067;-69
2023/12/02 14:05:06;;;;;;;24.03;9.37;;;5.40;96.10;;;;;;10439587;28;20124;-69
2023/12/02 14:10:09;;;;;;;25.27;9.80;;;5.40;96.10;;;;;;10495700;28;20035;-69
2023/12/02 14:15:28;;;;;;;26.33;9.82;;;5.40;96.10;;;;;;10499889;28;20017;-69
2023/12/02 14:20:47;;;;;;;;;;;5.40;96.10;;;;;;10487721;28;20362;-69
2023/12/02 14:26:16;;;;;;;21.20;9.40;;;5.30;96.20;;;;;;10489256;28;19911;-69
2023/12/02 14:31:49;;;;;;;22.05;8.98;;;5.40;96.20;;;;;;10484860;28;20508;-69
2023/12/02 14:37:02;;;;;;;22.95;9.52;;;5.40;96.20;;;;;;10485279;28;20040;-69
2023/12/02 14:42:57;;;;;;;20.60;9.25;;;5.30;96.10;;;;;;10490546;28;20432;-69
2023/12/02 14:48:08;;;;;;;22.60;9.27;;;5.30;96.20;;;;;;10475008;28;20531;-69
2023/12/02 14:53:10;;;;;;;21.63;9.27;;;5.30;96.20;;;;;;10475642;28;20029;-70
2023/12/02 14:58:25;;;;;;;22.80;8.82;;;5.30;96.20;;;;;;10489970;28;20542;-69
2023/12/02 15:03:29;;;;;;;25.55;10.07;;;5.30;96.20;;;;;;10490749;28;20020;-69
2023/12/02 15:08:36;;;;;;;23.00;10.00;;;5.30;96.20;;;;;;10490947;28;20024;-69
2023/12/02 15:13:37;;;;;;;23.33;10.50;;;5.30;96.30;;;;;;10475677;28;20634;-69
2023/12/02 15:18:38;;;;;;;21.67;9.13;;;5.30;96.30;;;;;;10477521;28;20017;-69
2023/12/02 15:23:40;;;;;;;25.08;9.00;;;5.30;96.30;;;;;;10494999;28;20017;-69
2023/12/02 15:28:41;;;;;;;24.20;9.65;;;5.30;96.30;;;;;;10484583;28;20029;-69
2023/12/02 15:33:47;;;;;;;22.02;9.23;;;5.30;96.30;;;;;;10490792;28;20035;-69
2023/12/02 15:38:49;;;;;;;24.80;9.52;;;5.30;96.30;;;;;;10488195;28;20051;-69
2023/12/02 15:43:54;;;;;;;21.02;9.10;;;5.30;96.40;;;;;;10486184;28;20028;-69
2023/12/02 15:48:55;;;;;;;19.85;9.43;;;5.30;96.40;;;;;;10489816;28;20020;-70
2023/12/02 15:53:57;;;;;;;22.55;9.85;;;5.30;96.40;;;;;;10492752;28;20032;-68
2023/12/02 15:58:58;;;;;;;19.67;8.88;;;5.70;96.50;;;;;;10484785;28;20009;-69
2023/12/02 16:03:59;;;;;;;21.60;9.27;;;5.20;96.40;;;;;;10490189;28;20024;-67
2023/12/02 16:09:01;;;;;;;25.75;8.57;;;5.20;96.40;;;;;;10485615;28;20052;-68
2023/12/02 16:14:05;;;;;;;22.35;9.80;;;5.20;96.40;;;;;;10487586;28;20283;-68
2023/12/02 16:19:06;;;;;;;21.67;8.63;;;5.20;96.40;;;;;;10478424;28;20024;-68
2023/12/02 16:24:07;;;;;;;22.10;9.20;;;5.20;96.40;;;;;;10496246;28;20025;-69
2023/12/02 16:29:08;;;;;;;25.33;9.48;;;5.20;96.40;;;;;;10496247;28;20085;-68
2023/12/02 16:34:09;;;;;;;25.20;10.77;;;5.20;96.40;;;;;;10492465;28;20435;-69
2023/12/02 16:39:13;;;;;;;26.33;9.95;;;5.20;96.50;;;;;;10493180;28;20040;-68
2023/12/02 16:44:13;;;;;;;22.02;9.45;;;5.20;96.40;;;;;;10495498;28;20399;-69
2023/12/02 16:49:18;;;;;;;22.42;9.02;;;5.20;96.50;;;;;;10491038;28;20064;-68
2023/12/02 16:54:18;;;;;;;27.30;9.18;;;5.20;96.40;;;;;;10486338;28;20020;-68
2023/12/02 16:59:46;;;;;;;24.33;9.70;;;5.20;96.40;;;;;;10487438;28;20059;-69
2023/12/02 17:04:47;;;;;;;21.63;10.15;;;5.20;96.40;;;;;;10491768;28;20028;-69
2023/12/02 17:09:47;;;;;;;23.80;9.27;;;5.20;96.40;;;;;;10491906;28;20492;-69
2023/12/02 17:14:49;;;;;;;23.58;9.93;;;5.20;96.40;;;;;;10483951;28;20028;-69
2023/12/02 17:19:50;;;;;;;24.45;9.32;;;5.20;96.40;;;;;;10493289;28;20024;-68
2023/12/02 17:24:51;;;;;;;21.35;9.48;;;5.20;96.40;;;;;;10488213;28;20017;-69
2023/12/02 17:29:51;;;;;;;21.00;9.48;;;5.10;96.40;;;;;;10507105;28;20433;-69
2023/12/02 17:34:52;;;;;;;21.98;8.82;;;5.10;96.40;;;;;;10487949;28;20032;-68
2023/12/02 17:39:52;;;;;;;24.30;9.93;;;5.10;96.40;;;;;;10503735;28;20069;-68
2023/12/02 17:44:53;;;;;;;26.05;9.55;;;5.20;96.50;;;;;;10503660;28;20032;-69
2023/12/02 17:49:53;;;;;;;22.75;9.50;;;5.10;96.40;;;;;;10503116;28;20290;-68
2023/12/02 17:54:54;;;;;;;21.88;9.52;;;5.20;96.40;;;;;;10496013;28;20051;-69
2023/12/02 17:59:55;;;;;;;26.83;10.55;;;5.10;96.40;;;;;;10488670;28;20451;-68
2023/12/02 18:04:55;;;;;;;22.15;9.45;;;5.10;96.40;;;;;;10501155;28;20510;-68
2023/12/02 18:09:56;;;;;;;22.73;9.75;;;5.20;96.40;;;;;;10487756;28;20042;-68
2023/12/02 18:14:57;;;;;;;21.10;10.00;;;5.10;96.40;;;;;;10477058;28;20036;-68
2023/12/02 18:19:58;;;;;;;23.15;10.15;;;5.10;96.40;;;;;;10482781;28;20336;-69
2023/12/02 18:24:59;;;;;;;20.85;9.20;;;5.20;96.50;;;;;;10472994;28;20569;-70
2023/12/02 18:29:59;;;;;;;21.48;8.88;;;5.20;96.50;;;;;;10478864;28;20504;-69
2023/12/02 18:35:00;;;;;;;24.65;10.75;;;5.10;96.40;;;;;;10471032;28;20530;-69
2023/12/02 18:40:00;;;;;;;22.30;10.43;;;5.10;96.50;;;;;;10473511;28;20020;-70
2023/12/02 18:45:01;;;;;;;22.55;9.82;;;5.10;96.50;;;;;;10474579;28;20058;-69
2023/12/02 18:50:02;;;;;;;24.65;10.25;;;5.10;96.50;;;;;;10487642;28;20073;-69
2023/12/02 18:55:03;;;;;;;24.80;10.02;;;5.10;96.50;;;;;;10479384;28;20020;-69
2023/12/02 19:00:05;;;;;;;24.15;9.82;;;5.10;96.70;;;;;;10475538;28;20112;-69
2023/12/02 19:05:06;;;;;;;21.80;10.13;;;5.10;96.50;;;;;;10480447;28;20078;-69
2023/12/02 19:10:07;;;;;;;28.02;10.43;;;5.10;96.50;;;;;;10484780;28;20305;-68
2023/12/02 19:15:08;;;;;;;24.00;10.35;;;5.10;96.50;;;;;;10479749;28;20466;-69
2023/12/02 19:20:09;;;;;;;25.90;10.88;;;5.10;96.50;;;;;;10482006;28;20115;-69
2023/12/02 19:25:09;;;;;;;23.40;10.30;;;5.10;96.50;;;;;;10484974;28;20029;-69
2023/12/02 19:30:12;;;;;;;24.10;10.13;;;5.10;96.50;;;;;;10487142;28;20056;-69
2023/12/02 19:35:15;;;;;;;26.63;10.73;;;5.10;96.70;;;;;;10479240;28;20012;-68
2023/12/02 19:40:16;;;;;;;23.92;10.48;;;5.10;96.50;;;;;;10483051;28;20028;-68
2023/12/02 19:45:16;;;;;;;24.70;11.13;;;5.10;96.50;;;;;;10483567;28;20483;-69
2023/12/02 19:50:19;;;;;;;21.67;10.45;;;5.10;96.50;;;;;;10476728;28;20036;-69
2023/12/02 19:55:19;;;;;;;24.58;10.45;;;5.10;96.50;;;;;;10482924;28;20118;-69
2023/12/02 20:00:20;;;;;;;23.08;10.45;;;5.10;96.60;;;;;;10489223;28;20047;-69
2023/12/02 20:05:22;;;;;;;22.58;10.43;;;5.10;96.60;;;;;;10466583;28;20043;-68
2023/12/02 20:10:25;;;;;;;24.58;10.25;;;5.10;96.60;;;;;;10480193;28;20510;-69
2023/12/02 20:15:25;;;;;;;26.48;10.55;;;5.10;96.60;;;;;;10482657;28;20037;-69
2023/12/02 20:20:26;;;;;;;24.15;9.65;;;5.00;96.60;;;;;;10480147;28;20021;-69
2023/12/02 20:25:26;;;;;;;21.23;9.50;;;5.00;96.60;;;;;;10481888;28;20032;-69
2023/12/02 20:30:27;;;;;;;25.95;9.93;;;5.00;96.60;;;;;;10486630;28;20035;-69
2023/12/02 20:35:28;;;;;;;23.05;10.02;;;5.00;96.60;;;;;;10476692;28;20398;-69
2023/12/02 20:40:28;;;;;;;25.77;10.10;;;5.00;96.60;;;;;;10471963;28;20562;-69
2023/12/02 20:45:29;;;;;;;21.63;10.40;;;5.10;96.60;;;;;;10476855;28;20024;-69
2023/12/02 20:50:29;;;;;;;23.67;10.40;;;5.00;96.60;;;;;;10487259;28;20370;-69
2023/12/02 20:55:30;;;;;;;24.65;9.80;;;5.00;96.60;;;;;;10482002;28;20095;-69
2023/12/02 21:00:30;;;;;;;21.73;9.13;;;5.00;96.60;;;;;;10478090;28;20090;-68
2023/12/02 21:05:31;;;;;;;20.67;9.85;;;5.00;96.60;;;;;;10475322;28;20028;-68
2023/12/02 21:10:33;;;;;;;26.63;10.52;;;5.00;96.60;;;;;;10473765;28;20135;-69
2023/12/02 21:15:34;;;;;;;22.80;9.98;;;5.00;96.60;;;;;;10476854;28;20036;-68
2023/12/02 21:20:35;;;;;;;23.02;9.98;;;5.00;96.60;;;;;;10488192;28;20028;-68
2023/12/02 21:25:36;;;;;;;25.50;10.07;;;5.00;96.60;;;;;;10485599;28;20028;-69
2023/12/02 21:30:41;;;;;;;23.25;9.00;;;5.00;96.60;;;;;;10488574;28;20052;-68
2023/12/02 21:36:02;;;;;;;23.08;9.85;;;5.00;96.70;;;;;;10488545;28;20017;-69
2023/12/02 21:41:03;;;;;;;22.83;10.02;;;5.00;96.70;;;;;;10491475;28;20029;-68
2023/12/02 21:46:05;;;;;;;26.40;10.60;;;5.00;96.70;;;;;;10481562;28;20020;-69
2023/12/02 21:51:32;;;;;;;24.75;10.70;;;4.90;96.70;;;;;;10477471;28;20032;-69
2023/12/02 21:56:40;;;;;;;22.83;10.27;;;4.90;96.70;;;;;;10492214;28;20112;-68
2023/12/02 22:01:43;;;;;;;25.43;10.70;;;4.90;96.70;;;;;;10490404;28;20021;-68
2023/12/02 22:06:50;;;;;;;23.40;10.43;;;4.90;96.70;;;;;;10482279;28;20126;-69
2023/12/02 22:11:51;;;;;;;21.80;10.73;;;4.90;96.70;;;;;;10486011;28;20024;-68
2023/12/02 22:17:05;;;;;;;23.85;10.48;;;4.90;96.70;;;;;;10487866;28;20052;-67
2023/12/02 22:22:28;;;;;;;26.13;10.55;;;4.90;96.70;;;;;;10479294;28;20027;-68
2023/12/02 22:27:36;;;;;;;22.30;10.02;;;4.90;96.70;;;;;;10477609;28;20029;-68
2023/12/02 22:32:36;;;;;;;22.77;10.25;;;4.90;96.70;;;;;;10482034;28;20108;-69
2023/12/02 22:37:40;;;;;;;21.48;9.70;;;4.90;96.70;;;;;;10480330;28;20029;-69
2023/12/02 22:42:41;;;;;;;24.00;10.70;;;4.90;96.70;;;;;;10479939;28;20103;-68
2023/12/02 22:47:42;;;;;;;21.25;9.25;;;4.90;96.70;;;;;;10482503;28;20424;-69
2023/12/02 22:52:42;;;;;;;25.95;9.73;;;4.90;96.70;;;;;;10487262;28;20497;-69
2023/12/02 22:57:43;;;;;;;19.95;9.13;;;4.90;96.70;;;;;;10484185;28;20034;-68
2023/12/02 23:02:43;;;;;;;22.85;10.45;;;4.90;96.70;;;;;;10471664;28;20419;-68
2023/12/02 23:07:55;;;;;;;24.45;9.40;;;4.80;96.70;;;;;;10470241;28;20408;-69
2023/12/02 23:12:56;;;;;;;19.17;9.43;;;4.90;96.70;;;;;;10482071;28;20017;-69
2023/12/02 23:18:00;;;;;;;24.48;10.27;;;4.90;96.70;;;;;;10480107;28;20036;-68
2023/12/02 23:23:01;;;;;;;24.15;9.77;;;4.90;96.70;;;;;;10475749;28;20016;-67
2023/12/02 23:28:02;;;;;;;19.88;9.25;;;4.90;96.70;;;;;;10482832;28;20020;-69
2023/12/02 23:33:03;;;;;;;20.27;9.07;;;4.90;96.70;;;;;;10480422;28;20100;-69
2023/12/02 23:38:06;;;;;;;20.98;9.75;;;4.90;96.70;;;;;;10479945;28;20029;-69
2023/12/02 23:43:22;;;;;;;20.52;9.32;;;4.80;96.70;;;;;;10472644;28;20099;-68
2023/12/02 23:48:22;;;;;;;20.85;8.88;;;4.80;96.70;;;;;;10479803;28;20028;-68
2023/12/02 23:53:23;;;;;;;19.92;8.75;;;4.80;96.70;;;;;;10481333;28;20052;-68
2023/12/02 23:58:24;;;;;;;20.35;9.15;;;4.80;96.70;;;;;;10477510;28;20071;-68
